sensor_id;sensor_type;location;lat;lon;timestamp;temperature;humidity
33841;DHT22;20142;28.494;-16.312;2024-02-14T00:01:32;21.20;54.60
33841;DHT22;20142;28.494;-16.312;2024-02-14T00:06:36;21.00;54.80
33841;DHT22;20142;28.494;-16.312;2024-02-14T00:11:38;20.80;55.20
33841;DHT22;20142;28.494;-16.312;2024-02-14T00:16:40;20.50;55.70
33841;DHT22;20142;28.494;-16.312;2024-02-14T00:21:41;20.40;55.60
33841;DHT22;20142;28.494;-16.312;2024-02-14T00:26:43;20.30;56.10
33841;DHT22;20142;28.494;-16.312;2024-02-14T00:31:47;20.20;56.10
33841;DHT22;20142;28.494;-16.312;2024-02-14T00:36:48;20.10;56.40
33841;DHT22;20142;28.494;-16.312;2024-02-14T00:41:50;20.10;56.40
33841;DHT22;20142;28.494;-16.312;2024-02-14T00:46:57;20.10;56.80
33841;DHT22;20142;28.494;-16.312;2024-02-14T00:52:00;20.10;57.20
33841;DHT22;20142;28.494;-16.312;2024-02-14T00:57:02;19.80;57.10
33841;DHT22;20142;28.494;-16.312;2024-02-14T01:02:04;19.50;57.60
33841;DHT22;20142;28.494;-16.312;2024-02-14T01:07:06;19.60;57.80
33841;DHT22;20142;28.494;-16.312;2024-02-14T01:12:08;19.70;57.90
33841;DHT22;20142;28.494;-16.312;2024-02-14T01:17:09;19.70;57.70
33841;DHT22;20142;28.494;-16.312;2024-02-14T01:22:12;19.80;57.90
33841;DHT22;20142;28.494;-16.312;2024-02-14T01:27:17;19.80;57.60
33841;DHT22;20142;28.494;-16.312;2024-02-14T01:32:19;19.60;58.20
33841;DHT22;20142;28.494;-16.312;2024-02-14T01:37:21;19.50;58.00
33841;DHT22;20142;28.494;-16.312;2024-02-14T01:42:22;19.40;58.50
33841;DHT22;20142;28.494;-16.312;2024-02-14T01:47:24;19.30;59.00
33841;DHT22;20142;28.494;-16.312;2024-02-14T01:52:27;19.00;59.00
33841;DHT22;20142;28.494;-16.312;2024-02-14T01:57:28;18.80;59.80
33841;DHT22;20142;28.494;-16.312;2024-02-14T02:02:30;18.80;60.20
33841;DHT22;20142;28.494;-16.312;2024-02-14T02:07:33;18.50;60.10
33841;DHT22;20142;28.494;-16.312;2024-02-14T02:12:35;18.50;61.00
33841;DHT22;20142;28.494;-16.312;2024-02-14T02:17:39;18.30;61.20
33841;DHT22;20142;28.494;-16.312;2024-02-14T02:22:46;18.30;61.60
33841;DHT22;20142;28.494;-16.312;2024-02-14T02:27:49;18.30;61.50
33841;DHT22;20142;28.494;-16.312;2024-02-14T02:32:51;18.50;61.60
33841;DHT22;20142;28.494;-16.312;2024-02-14T02:37:52;18.50;61.60
33841;DHT22;20142;28.494;-16.312;2024-02-14T02:42:54;18.50;61.70
33841;DHT22;20142;28.494;-16.312;2024-02-14T02:47:56;18.60;61.90
33841;DHT22;20142;28.494;-16.312;2024-02-14T02:52:58;18.30;62.20
33841;DHT22;20142;28.494;-16.312;2024-02-14T02:57:59;18.30;63.30
33841;DHT22;20142;28.494;-16.312;2024-02-14T03:03:02;18.30;64.00
33841;DHT22;20142;28.494;-16.312;2024-02-14T03:08:05;18.40;64.90
33841;DHT22;20142;28.494;-16.312;2024-02-14T03:13:09;18.40;65.70
33841;DHT22;20142;28.494;-16.312;2024-02-14T03:18:12;18.30;66.20
33841;DHT22;20142;28.494;-16.312;2024-02-14T03:23:14;18.40;67.50
33841;DHT22;20142;28.494;-16.312;2024-02-14T03:28:16;18.30;67.60
33841;DHT22;20142;28.494;-16.312;2024-02-14T03:33:18;18.20;68.40
33841;DHT22;20142;28.494;-16.312;2024-02-14T03:38:28;17.90;69.60
33841;DHT22;20142;28.494;-16.312;2024-02-14T03:43:30;17.90;70.40
33841;DHT22;20142;28.494;-16.312;2024-02-14T03:48:33;18.00;70.70
33841;DHT22;20142;28.494;-16.312;2024-02-14T03:53:35;18.00;70.80
33841;DHT22;20142;28.494;-16.312;2024-02-14T03:58:39;18.00;71.20
33841;DHT22;20142;28.494;-16.312;2024-02-14T04:03:41;17.90;72.10
33841;DHT22;20142;28.494;-16.312;2024-02-14T04:08:42;17.80;72.50
33841;DHT22;20142;28.494;-16.312;2024-02-14T04:13:44;17.60;72.70
33841;DHT22;20142;28.494;-16.312;2024-02-14T04:18:45;17.50;73.50
33841;DHT22;20142;28.494;-16.312;2024-02-14T04:23:47;17.50;73.20
33841;DHT22;20142;28.494;-16.312;2024-02-14T04:28:49;17.50;73.90
33841;DHT22;20142;28.494;-16.312;2024-02-14T04:33:51;17.40;74.10
33841;DHT22;20142;28.494;-16.312;2024-02-14T04:38:54;17.50;75.00
33841;DHT22;20142;28.494;-16.312;2024-02-14T04:43:56;17.50;75.90
33841;DHT22;20142;28.494;-16.312;2024-02-14T04:48:58;17.50;76.70
33841;DHT22;20142;28.494;-16.312;2024-02-14T04:54:00;17.60;77.60
33841;DHT22;20142;28.494;-16.312;2024-02-14T04:59:01;17.60;77.70
33841;DHT22;20142;28.494;-16.312;2024-02-14T05:04:04;17.70;78.00
33841;DHT22;20142;28.494;-16.312;2024-02-14T05:09:05;17.60;78.60
33841;DHT22;20142;28.494;-16.312;2024-02-14T05:14:07;17.60;78.90
33841;DHT22;20142;28.494;-16.312;2024-02-14T05:19:09;17.60;79.50
33841;DHT22;20142;28.494;-16.312;2024-02-14T05:24:11;17.50;79.60
33841;DHT22;20142;28.494;-16.312;2024-02-14T05:29:13;17.50;80.00
33841;DHT22;20142;28.494;-16.312;2024-02-14T05:34:15;17.50;80.50
33841;DHT22;20142;28.494;-16.312;2024-02-14T05:39:16;17.60;80.60
33841;DHT22;20142;28.494;-16.312;2024-02-14T05:44:18;17.50;81.10
33841;DHT22;20142;28.494;-16.312;2024-02-14T05:49:20;17.50;81.40
33841;DHT22;20142;28.494;-16.312;2024-02-14T05:54:22;17.50;81.60
33841;DHT22;20142;28.494;-16.312;2024-02-14T05:59:24;17.40;81.80
33841;DHT22;20142;28.494;-16.312;2024-02-14T06:04:26;17.20;82.00
33841;DHT22;20142;28.494;-16.312;2024-02-14T06:09:27;17.20;82.60
33841;DHT22;20142;28.494;-16.312;2024-02-14T06:14:30;17.20;82.80
33841;DHT22;20142;28.494;-16.312;2024-02-14T06:19:32;17.10;83.20
33841;DHT22;20142;28.494;-16.312;2024-02-14T06:24:34;17.10;83.60
33841;DHT22;20142;28.494;-16.312;2024-02-14T06:29:36;17.10;83.80
33841;DHT22;20142;28.494;-16.312;2024-02-14T06:34:37;17.20;84.00
33841;DHT22;20142;28.494;-16.312;2024-02-14T06:39:39;17.10;84.20
33841;DHT22;20142;28.494;-16.312;2024-02-14T06:44:41;17.10;84.50
33841;DHT22;20142;28.494;-16.312;2024-02-14T06:49:42;17.10;84.70
33841;DHT22;20142;28.494;-16.312;2024-02-14T06:54:44;17.10;84.90
33841;DHT22;20142;28.494;-16.312;2024-02-14T06:59:46;17.10;84.70
33841;DHT22;20142;28.494;-16.312;2024-02-14T07:04:49;17.00;85.50
33841;DHT22;20142;28.494;-16.312;2024-02-14T07:09:51;17.10;85.80
33841;DHT22;20142;28.494;-16.312;2024-02-14T07:14:52;16.90;85.70
33841;DHT22;20142;28.494;-16.312;2024-02-14T07:19:54;16.90;86.50
33841;DHT22;20142;28.494;-16.312;2024-02-14T07:24:56;17.00;86.60
33841;DHT22;20142;28.494;-16.312;2024-02-14T07:29:57;16.80;86.60
33841;DHT22;20142;28.494;-16.312;2024-02-14T07:34:59;16.70;86.90
33841;DHT22;20142;28.494;-16.312;2024-02-14T07:40:01;16.80;87.20
33841;DHT22;20142;28.494;-16.312;2024-02-14T07:45:03;16.80;87.40
33841;DHT22;20142;28.494;-16.312;2024-02-14T07:50:05;16.80;87.60
33841;DHT22;20142;28.494;-16.312;2024-02-14T07:55:07;16.90;87.80
33841;DHT22;20142;28.494;-16.312;2024-02-14T08:00:12;16.90;87.70
33841;DHT22;20142;28.494;-16.312;2024-02-14T08:05:20;16.90;88.00
33841;DHT22;20142;28.494;-16.312;2024-02-14T08:10:21;17.00;88.40
33841;DHT22;20142;28.494;-16.312;2024-02-14T08:15:23;17.00;88.50
33841;DHT22;20142;28.494;-16.312;2024-02-14T08:20:25;17.10;88.40
33841;DHT22;20142;28.494;-16.312;2024-02-14T08:25:26;17.20;88.60
33841;DHT22;20142;28.494;-16.312;2024-02-14T08:30:28;17.30;88.90
33841;DHT22;20142;28.494;-16.312;2024-02-14T08:35:30;17.40;89.00
33841;DHT22;20142;28.494;-16.312;2024-02-14T08:40:32;17.50;89.10
33841;DHT22;20142;28.494;-16.312;2024-02-14T08:45:33;17.50;89.30
33841;DHT22;20142;28.494;-16.312;2024-02-14T08:50:35;17.50;89.40
33841;DHT22;20142;28.494;-16.312;2024-02-14T08:55:37;17.60;89.40
33841;DHT22;20142;28.494;-16.312;2024-02-14T09:00:39;17.80;89.50
33841;DHT22;20142;28.494;-16.312;2024-02-14T09:05:42;17.80;89.90
33841;DHT22;20142;28.494;-16.312;2024-02-14T09:10:44;18.00;90.10
33841;DHT22;20142;28.494;-16.312;2024-02-14T09:15:47;18.10;89.90
33841;DHT22;20142;28.494;-16.312;2024-02-14T09:20:49;18.30;89.30
33841;DHT22;20142;28.494;-16.312;2024-02-14T09:25:51;18.50;89.40
33841;DHT22;20142;28.494;-16.312;2024-02-14T09:30:53;18.70;89.30
33841;DHT22;20142;28.494;-16.312;2024-02-14T09:35:56;19.00;89.30
33841;DHT22;20142;28.494;-16.312;2024-02-14T09:41:31;19.40;89.00
33841;DHT22;20142;28.494;-16.312;2024-02-14T09:46:38;19.60;88.90
33841;DHT22;20142;28.494;-16.312;2024-02-14T09:51:41;19.80;88.80
33841;DHT22;20142;28.494;-16.312;2024-02-14T09:56:50;19.70;88.00
33841;DHT22;20142;28.494;-16.312;2024-02-14T10:01:56;19.80;88.20
33841;DHT22;20142;28.494;-16.312;2024-02-14T10:06:58;20.00;87.80
33841;DHT22;20142;28.494;-16.312;2024-02-14T10:12:00;20.30;88.00
33841;DHT22;20142;28.494;-16.312;2024-02-14T10:17:04;20.50;87.50
33841;DHT22;20142;28.494;-16.312;2024-02-14T10:22:05;20.70;87.30
33841;DHT22;20142;28.494;-16.312;2024-02-14T10:27:11;21.00;86.70
33841;DHT22;20142;28.494;-16.312;2024-02-14T10:32:15;21.30;86.20
33841;DHT22;20142;28.494;-16.312;2024-02-14T10:37:18;21.50;85.70
33841;DHT22;20142;28.494;-16.312;2024-02-14T10:42:22;21.60;85.50
33841;DHT22;20142;28.494;-16.312;2024-02-14T10:47:29;21.90;84.80
33841;DHT22;20142;28.494;-16.312;2024-02-14T10:52:35;22.10;84.30
33841;DHT22;20142;28.494;-16.312;2024-02-14T10:57:37;22.40;83.80
33841;DHT22;20142;28.494;-16.312;2024-02-14T11:02:40;22.60;83.20
33841;DHT22;20142;28.494;-16.312;2024-02-14T11:07:47;22.80;82.40
33841;DHT22;20142;28.494;-16.312;2024-02-14T11:12:54;23.10;81.90
33841;DHT22;20142;28.494;-16.312;2024-02-14T11:18:04;23.20;81.30
33841;DHT22;20142;28.494;-16.312;2024-02-14T11:23:08;23.30;80.60
33841;DHT22;20142;28.494;-16.312;2024-02-14T11:28:19;23.50;79.80
33841;DHT22;20142;28.494;-16.312;2024-02-14T11:33:26;23.60;79.60
33841;DHT22;20142;28.494;-16.312;2024-02-14T11:38:28;23.70;78.70
33841;DHT22;20142;28.494;-16.312;2024-02-14T11:43:31;23.80;78.30
33841;DHT22;20142;28.494;-16.312;2024-02-14T11:48:33;23.80;78.10
33841;DHT22;20142;28.494;-16.312;2024-02-14T11:53:35;23.90;77.70
33841;DHT22;20142;28.494;-16.312;2024-02-14T11:58:36;23.80;77.30
33841;DHT22;20142;28.494;-16.312;2024-02-14T12:03:38;23.70;77.00
33841;DHT22;20142;28.494;-16.312;2024-02-14T12:08:40;23.70;76.70
33841;DHT22;20142;28.494;-16.312;2024-02-14T12:13:42;23.80;76.20
33841;DHT22;20142;28.494;-16.312;2024-02-14T12:18:44;24.00;76.10
33841;DHT22;20142;28.494;-16.312;2024-02-14T12:23:46;24.00;75.50
33841;DHT22;20142;28.494;-16.312;2024-02-14T12:28:52;24.10;75.30
33841;DHT22;20142;28.494;-16.312;2024-02-14T12:33:54;24.20;75.60
33841;DHT22;20142;28.494;-16.312;2024-02-14T12:38:56;24.30;75.50
33841;DHT22;20142;28.494;-16.312;2024-02-14T12:43:59;24.50;75.20
33841;DHT22;20142;28.494;-16.312;2024-02-14T12:49:03;24.80;75.20
33841;DHT22;20142;28.494;-16.312;2024-02-14T12:54:05;24.70;75.30
33841;DHT22;20142;28.494;-16.312;2024-02-14T12:59:08;24.80;74.60
33841;DHT22;20142;28.494;-16.312;2024-02-14T13:04:19;24.20;73.60
33841;DHT22;20142;28.494;-16.312;2024-02-14T13:09:22;23.90;73.90
33841;DHT22;20142;28.494;-16.312;2024-02-14T13:14:24;23.70;73.70
33841;DHT22;20142;28.494;-16.312;2024-02-14T13:19:26;23.60;74.70
33841;DHT22;20142;28.494;-16.312;2024-02-14T13:24:27;23.50;75.10
33841;DHT22;20142;28.494;-16.312;2024-02-14T13:29:29;23.50;75.40
33841;DHT22;20142;28.494;-16.312;2024-02-14T13:34:31;23.50;75.50
33841;DHT22;20142;28.494;-16.312;2024-02-14T13:39:32;23.50;75.10
33841;DHT22;20142;28.494;-16.312;2024-02-14T13:44:34;23.20;75.40
33841;DHT22;20142;28.494;-16.312;2024-02-14T13:49:36;23.20;76.00
33841;DHT22;20142;28.494;-16.312;2024-02-14T13:54:37;23.40;76.80
33841;DHT22;20142;28.494;-16.312;2024-02-14T13:59:39;23.50;76.40
33841;DHT22;20142;28.494;-16.312;2024-02-14T14:04:41;23.40;76.30
33841;DHT22;20142;28.494;-16.312;2024-02-14T14:09:43;23.10;77.10
33841;DHT22;20142;28.494;-16.312;2024-02-14T14:14:44;23.20;77.70
33841;DHT22;20142;28.494;-16.312;2024-02-14T14:19:46;23.30;77.80
33841;DHT22;20142;28.494;-16.312;2024-02-14T14:24:48;23.70;77.30
33841;DHT22;20142;28.494;-16.312;2024-02-14T14:29:49;23.70;77.00
33841;DHT22;20142;28.494;-16.312;2024-02-14T14:34:51;23.10;78.60
33841;DHT22;20142;28.494;-16.312;2024-02-14T14:39:53;23.00;79.00
33841;DHT22;20142;28.494;-16.312;2024-02-14T14:44:56;23.70;78.30
33841;DHT22;20142;28.494;-16.312;2024-02-14T14:49:58;23.70;77.80
33841;DHT22;20142;28.494;-16.312;2024-02-14T14:55:00;23.40;79.10
33841;DHT22;20142;28.494;-16.312;2024-02-14T15:00:02;23.90;78.10
33841;DHT22;20142;28.494;-16.312;2024-02-14T15:05:04;23.90;77.90
33841;DHT22;20142;28.494;-16.312;2024-02-14T15:10:06;24.00;78.40
33841;DHT22;20142;28.494;-16.312;2024-02-14T15:15:11;24.70;77.10
33841;DHT22;20142;28.494;-16.312;2024-02-14T15:20:13;24.50;76.50
33841;DHT22;20142;28.494;-16.312;2024-02-14T15:25:15;26.20;74.10
33841;DHT22;20142;28.494;-16.312;2024-02-14T15:30:16;25.10;74.70
33841;DHT22;20142;28.494;-16.312;2024-02-14T15:35:36;25.90;75.10
33841;DHT22;20142;28.494;-16.312;2024-02-14T15:40:39;24.50;75.40
33841;DHT22;20142;28.494;-16.312;2024-02-14T15:45:41;23.80;76.70
33841;DHT22;20142;28.494;-16.312;2024-02-14T15:50:43;23.60;77.10
33841;DHT22;20142;28.494;-16.312;2024-02-14T15:55:44;23.10;78.80
33841;DHT22;20142;28.494;-16.312;2024-02-14T16:00:47;24.10;78.40
33841;DHT22;20142;28.494;-16.312;2024-02-14T16:05:48;23.30;79.00
33841;DHT22;20142;28.494;-16.312;2024-02-14T16:10:50;25.40;77.50
33841;DHT22;20142;28.494;-16.312;2024-02-14T16:15:54;29.70;68.10
33841;DHT22;20142;28.494;-16.312;2024-02-14T16:20:56;28.50;69.00
33841;DHT22;20142;28.494;-16.312;2024-02-14T16:25:58;28.60;68.90
33841;DHT22;20142;28.494;-16.312;2024-02-14T16:30:59;26.90;70.20
33841;DHT22;20142;28.494;-16.312;2024-02-14T16:36:01;29.90;66.80
33841;DHT22;20142;28.494;-16.312;2024-02-14T16:41:03;31.20;65.60
33841;DHT22;20142;28.494;-16.312;2024-02-14T16:46:05;30.80;64.90
33841;DHT22;20142;28.494;-16.312;2024-02-14T16:51:06;32.40;61.20
33841;DHT22;20142;28.494;-16.312;2024-02-14T16:56:09;29.20;62.50
33841;DHT22;20142;28.494;-16.312;2024-02-14T17:01:10;25.90;67.50
33841;DHT22;20142;28.494;-16.312;2024-02-14T17:06:12;24.40;69.80
33841;DHT22;20142;28.494;-16.312;2024-02-14T17:11:15;23.60;73.50
33841;DHT22;20142;28.494;-16.312;2024-02-14T17:16:17;22.90;74.80
33841;DHT22;20142;28.494;-16.312;2024-02-14T17:21:18;22.00;76.70
33841;DHT22;20142;28.494;-16.312;2024-02-14T17:26:20;21.70;78.30
33841;DHT22;20142;28.494;-16.312;2024-02-14T17:31:22;21.30;79.10
33841;DHT22;20142;28.494;-16.312;2024-02-14T17:36:24;21.00;80.10
33841;DHT22;20142;28.494;-16.312;2024-02-14T17:41:26;20.60;81.90
33841;DHT22;20142;28.494;-16.312;2024-02-14T17:46:28;20.40;82.90
33841;DHT22;20142;28.494;-16.312;2024-02-14T17:51:30;20.30;83.70
33841;DHT22;20142;28.494;-16.312;2024-02-14T17:56:33;19.90;84.60
33841;DHT22;20142;28.494;-16.312;2024-02-14T18:01:35;19.60;86.00
33841;DHT22;20142;28.494;-16.312;2024-02-14T18:06:37;19.50;86.80
33841;DHT22;20142;28.494;-16.312;2024-02-14T18:11:39;19.50;87.80
33841;DHT22;20142;28.494;-16.312;2024-02-14T18:16:40;19.40;88.60
33841;DHT22;20142;28.494;-16.312;2024-02-14T18:21:43;19.10;89.00
33841;DHT22;20142;28.494;-16.312;2024-02-14T18:26:44;19.00;89.70
33841;DHT22;20142;28.494;-16.312;2024-02-14T18:31:46;19.10;89.90
33841;DHT22;20142;28.494;-16.312;2024-02-14T18:36:48;19.30;90.20
33841;DHT22;20142;28.494;-16.312;2024-02-14T18:41:49;19.20;90.20
33841;DHT22;20142;28.494;-16.312;2024-02-14T18:46:52;19.10;90.40
33841;DHT22;20142;28.494;-16.312;2024-02-14T18:51:54;19.00;90.60
33841;DHT22;20142;28.494;-16.312;2024-02-14T18:56:56;18.90;90.60
33841;DHT22;20142;28.494;-16.312;2024-02-14T19:01:57;18.90;91.20
33841;DHT22;20142;28.494;-16.312;2024-02-14T19:06:59;18.80;91.20
33841;DHT22;20142;28.494;-16.312;2024-02-14T19:12:02;18.80;91.30
33841;DHT22;20142;28.494;-16.312;2024-02-14T19:17:04;18.50;91.40
33841;DHT22;20142;28.494;-16.312;2024-02-14T19:22:06;18.50;91.80
33841;DHT22;20142;28.494;-16.312;2024-02-14T19:27:08;18.40;92.50
33841;DHT22;20142;28.494;-16.312;2024-02-14T19:32:10;18.40;92.80
33841;DHT22;20142;28.494;-16.312;2024-02-14T19:37:11;18.40;93.00
33841;DHT22;20142;28.494;-16.312;2024-02-14T19:42:13;18.30;93.10
33841;DHT22;20142;28.494;-16.312;2024-02-14T19:47:15;18.30;92.90
33841;DHT22;20142;28.494;-16.312;2024-02-14T19:52:17;18.30;93.20
33841;DHT22;20142;28.494;-16.312;2024-02-14T19:57:18;18.20;93.20
33841;DHT22;20142;28.494;-16.312;2024-02-14T20:02:21;18.20;93.00
33841;DHT22;20142;28.494;-16.312;2024-02-14T20:07:22;18.30;93.30
33841;DHT22;20142;28.494;-16.312;2024-02-14T20:12:24;18.40;93.20
33841;DHT22;20142;28.494;-16.312;2024-02-14T20:17:27;18.40;92.90
33841;DHT22;20142;28.494;-16.312;2024-02-14T20:22:29;18.30;92.60
33841;DHT22;20142;28.494;-16.312;2024-02-14T20:27:31;18.30;92.40
33841;DHT22;20142;28.494;-16.312;2024-02-14T20:32:33;18.30;92.50
33841;DHT22;20142;28.494;-16.312;2024-02-14T20:37:38;18.30;92.20
33841;DHT22;20142;28.494;-16.312;2024-02-14T20:42:42;18.50;91.60
33841;DHT22;20142;28.494;-16.312;2024-02-14T20:47:45;18.50;90.60
33841;DHT22;20142;28.494;-16.312;2024-02-14T20:52:47;18.50;90.80
33841;DHT22;20142;28.494;-16.312;2024-02-14T20:57:49;18.40;90.50
33841;DHT22;20142;28.494;-16.312;2024-02-14T21:02:52;18.40;90.40
33841;DHT22;20142;28.494;-16.312;2024-02-14T21:07:54;18.40;90.20
33841;DHT22;20142;28.494;-16.312;2024-02-14T21:12:55;18.40;90.10
33841;DHT22;20142;28.494;-16.312;2024-02-14T21:17:58;18.40;90.00
33841;DHT22;20142;28.494;-16.312;2024-02-14T21:23:00;18.30;89.90
33841;DHT22;20142;28.494;-16.312;2024-02-14T21:28:03;18.30;89.40
33841;DHT22;20142;28.494;-16.312;2024-02-14T21:33:06;18.40;89.00
33841;DHT22;20142;28.494;-16.312;2024-02-14T21:38:08;18.30;88.50
33841;DHT22;20142;28.494;-16.312;2024-02-14T21:43:10;18.30;88.40
33841;DHT22;20142;28.494;-16.312;2024-02-14T21:48:14;18.40;88.60
33841;DHT22;20142;28.494;-16.312;2024-02-14T21:53:18;18.30;88.30
33841;DHT22;20142;28.494;-16.312;2024-02-14T21:58:20;18.10;89.60
33841;DHT22;20142;28.494;-16.312;2024-02-14T22:03:22;18.10;90.70
33841;DHT22;20142;28.494;-16.312;2024-02-14T22:08:24;17.90;91.60
33841;DHT22;20142;28.494;-16.312;2024-02-14T22:13:25;17.70;92.80
33841;DHT22;20142;28.494;-16.312;2024-02-14T22:18:27;17.60;94.00
33841;DHT22;20142;28.494;-16.312;2024-02-14T22:23:29;17.60;94.50
33841;DHT22;20142;28.494;-16.312;2024-02-14T22:28:30;17.50;95.30
33841;DHT22;20142;28.494;-16.312;2024-02-14T22:33:35;17.40;95.50
33841;DHT22;20142;28.494;-16.312;2024-02-14T22:38:37;17.40;95.90
33841;DHT22;20142;28.494;-16.312;2024-02-14T22:43:38;17.40;96.10
33841;DHT22;20142;28.494;-16.312;2024-02-14T22:48:40;17.40;96.40
33841;DHT22;20142;28.494;-16.312;2024-02-14T22:53:42;17.50;96.40
33841;DHT22;20142;28.494;-16.312;2024-02-14T22:58:44;17.50;96.50
33841;DHT22;20142;28.494;-16.312;2024-02-14T23:03:45;17.50;96.50
33841;DHT22;20142;28.494;-16.312;2024-02-14T23:08:47;17.50;96.50
33841;DHT22;20142;28.494;-16.312;2024-02-14T23:13:49;17.50;96.40
33841;DHT22;20142;28.494;-16.312;2024-02-14T23:18:51;17.50;96.10
33841;DHT22;20142;28.494;-16.312;2024-02-14T23:23:54;17.60;95.90
33841;DHT22;20142;28.494;-16.312;2024-02-14T23:28:58;17.70;96.20
33841;DHT22;20142;28.494;-16.312;2024-02-14T23:34:00;17.70;95.30
33841;DHT22;20142;28.494;-16.312;2024-02-14T23:39:01;17.70;95.50
33841;DHT22;20142;28.494;-16.312;2024-02-14T23:44:03;17.80;95.40
33841;DHT22;20142;28.494;-16.312;2024-02-14T23:49:05;17.80;95.30
33841;DHT22;20142;28.494;-16.312;2024-02-14T23:54:07;17.90;94.80
33841;DHT22;20142;28.494;-16.312;2024-02-14T23:59:10;17.90;94.70
